Time;durP1;ratioP1;P1;durP2;ratioP2;P2;SDS_P1;SDS_P2;PMS_P1;PMS_P2;Temp;Humidity;BMP_temperature;BMP_pressure;BME280_temperature;BME280_humidity;BME280_pressure;Samples;Min_cycle;Max_cycle;Signal;HPM_P1;HPM_P2
2022/04/26 03:37:12;;;;;;;15.98;7.85;;;4.20;99.90;;;;;;5085472;28;20115;-81
2022/04/26 03:39:39;;;;;;;20.65;8.82;;;4.50;99.90;;;;;;5086773;28;20421;-81
2022/04/26 03:42:05;;;;;;;17.17;8.25;;;4.30;99.90;;;;;;5092054;28;20035;-81
2022/04/26 03:44:31;;;;;;;18.25;7.88;;;4.30;99.90;;;;;;5072822;28;20043;-81
2022/04/26 03:46:57;;;;;;;20.30;7.97;;;4.60;99.90;;;;;;5091808;28;20040;-81
2022/04/26 03:49:24;;;;;;;18.95;8.48;;;4.30;99.90;;;;;;5075116;28;20036;-80
2022/04/26 03:51:53;;;;;;;18.23;8.43;;;4.30;99.90;;;;;;5058430;28;20040;-79
2022/04/26 03:54:23;;;;;;;18.27;8.05;;;4.20;99.90;;;;;;5058928;28;20036;-79
2022/04/26 03:56:50;;;;;;;20.23;8.68;;;4.30;99.90;;;;;;5070950;28;20398;-79
2022/04/26 03:59:16;;;;;;;19.00;8.48;;;4.20;99.90;;;;;;5088155;28;20402;-79
2022/04/26 04:01:42;;;;;;;17.70;7.93;;;4.10;99.90;;;;;;5083736;28;20035;-79
2022/04/26 04:04:08;;;;;;;16.75;8.38;;;4.20;99.90;;;;;;5089692;28;20555;-79
2022/04/26 04:06:34;;;;;;;16.40;7.95;;;4.20;99.90;;;;;;5072691;28;20478;-81
2022/04/26 04:08:59;;;;;;;20.45;8.18;;;4.10;99.90;;;;;;5091306;28;20040;-81
2022/04/26 04:11:25;;;;;;;19.90;8.07;;;4.00;99.90;;;;;;5091694;28;20046;-81
2022/04/26 04:13:51;;;;;;;20.42;7.78;;;4.00;99.90;;;;;;5087836;28;20580;-81
2022/04/26 04:16:17;;;;;;;19.27;7.90;;;3.80;99.90;;;;;;5059848;28;20041;-81
2022/04/26 04:21:27;;;;;;;16.10;7.13;;;4.40;99.90;;;;;;5089846;28;20074;-81
2022/04/26 04:23:52;;;;;;;21.55;7.82;;;4.30;99.90;;;;;;5091986;28;20043;-79
2022/04/26 04:26:18;;;;;;;16.35;7.80;;;4.10;99.90;;;;;;5090880;28;20040;-79
2022/04/26 04:28:44;;;;;;;19.35;7.47;;;4.20;99.90;;;;;;5090737;28;20131;-79
2022/04/26 04:31:10;;;;;;;18.67;7.35;;;4.00;99.90;;;;;;5076559;28;20075;-79
2022/04/26 04:33:37;;;;;;;17.85;7.40;;;4.20;99.90;;;;;;5059923;28;20087;-79
2022/04/26 04:36:03;;;;;;;23.10;7.70;;;4.30;99.90;;;;;;5092978;28;20054;-79
2022/04/26 04:38:32;;;;;;;18.48;7.90;;;4.50;99.90;;;;;;5092988;28;20044;-80
2022/04/26 04:40:58;;;;;;;17.95;7.90;;;4.60;99.90;;;;;;5095182;28;20076;-81
2022/04/26 04:43:24;;;;;;;18.38;7.72;;;4.80;99.90;;;;;;5095333;28;20036;-81
2022/04/26 04:45:49;;;;;;;20.55;7.70;;;5.00;99.90;;;;;;5065727;28;20042;-81
2022/04/26 04:48:16;;;;;;;14.13;6.75;;;5.10;99.90;;;;;;5091920;28;20036;-81
2022/04/26 04:50:42;;;;;;;21.17;7.45;;;5.60;99.90;;;;;;5077027;28;20040;-81
2022/04/26 04:53:08;;;;;;;17.38;6.90;;;5.60;99.90;;;;;;5095101;28;20048;-81
2022/04/26 04:55:34;;;;;;;17.73;6.57;;;5.60;99.90;;;;;;5085389;28;20083;-81
2022/04/26 04:58:00;;;;;;;15.15;7.32;;;6.00;99.90;;;;;;5094621;28;20071;-81
2022/04/26 05:00:26;;;;;;;18.58;6.78;;;6.40;99.90;;;;;;5092630;28;20485;-81
2022/04/26 05:02:52;;;;;;;15.38;6.60;;;5.80;99.90;;;;;;5087059;28;20086;-81
2022/04/26 05:05:18;;;;;;;20.73;7.10;;;5.90;99.90;;;;;;5094934;28;20118;-81
2022/04/26 05:07:44;;;;;;;22.13;7.15;;;6.00;99.90;;;;;;5093023;28;20044;-81
2022/04/26 05:10:09;;;;;;;18.80;6.65;;;6.00;99.90;;;;;;5094552;28;20044;-81
2022/04/26 05:12:35;;;;;;;13.40;5.95;;;6.20;99.90;;;;;;5060208;28;20044;-81
2022/04/26 05:15:01;;;;;;;14.38;6.03;;;6.30;99.90;;;;;;5075502;28;20434;-81
2022/04/26 05:17:27;;;;;;;14.40;6.15;;;6.50;99.90;;;;;;5094619;28;20132;-81
2022/04/26 05:19:53;;;;;;;14.27;6.13;;;6.60;99.90;;;;;;5094835;28;20033;-81
2022/04/26 05:22:19;;;;;;;13.32;6.40;;;6.70;99.90;;;;;;5077878;28;20391;-81
2022/04/26 05:24:54;;;;;;;18.42;6.25;;;7.20;99.90;;;;;;5094605;28;20119;-81
2022/04/26 05:27:28;;;;;;;12.38;5.32;;;7.00;99.90;;;;;;5099450;28;20048;-81
2022/04/26 05:29:55;;;;;;;12.50;5.35;;;7.10;99.90;;;;;;5092759;28;20078;-81
2022/04/26 05:32:27;;;;;;;18.27;5.63;;;7.20;99.90;;;;;;5094606;28;20040;-81
2022/04/26 05:35:02;;;;;;;11.52;5.38;;;7.30;99.90;;;;;;5093687;28;20044;-81
2022/04/26 05:37:30;;;;;;;13.80;5.57;;;7.40;99.90;;;;;;5093640;28;20040;-81
2022/04/26 05:40:02;;;;;;;11.68;5.20;;;7.50;99.90;;;;;;5094417;28;20051;-81
2022/04/26 05:42:31;;;;;;;11.55;5.80;;;7.50;99.90;;;;;;5089729;28;20044;-81
2022/04/26 05:44:57;;;;;;;13.85;5.72;;;7.60;99.90;;;;;;5076999;28;20028;-80
2022/04/26 05:47:23;;;;;;;12.07;5.70;;;7.70;99.90;;;;;;5092980;28;20064;-79
2022/04/26 05:49:52;;;;;;;13.65;5.72;;;7.90;99.90;;;;;;5076499;28;20085;-79
2022/04/26 05:52:18;;;;;;;11.15;5.38;;;8.00;99.90;;;;;;5093874;28;20078;-79
2022/04/26 05:54:44;;;;;;;13.63;5.18;;;8.20;99.90;;;;;;5076611;28;20040;-79
2022/04/26 05:57:10;;;;;;;13.27;6.03;;;8.40;99.90;;;;;;5093876;28;20043;-79
2022/04/26 05:59:36;;;;;;;16.45;5.80;;;8.60;99.90;;;;;;5068337;28;20475;-79
2022/04/26 06:02:02;;;;;;;13.40;4.72;;;8.80;99.90;;;;;;5052829;28;20089;-79
2022/04/26 06:04:27;;;;;;;12.23;4.43;;;9.00;99.90;;;;;;5093083;28;20028;-79
2022/04/26 06:06:53;;;;;;;13.18;5.57;;;9.30;99.90;;;;;;5076136;28;20519;-79
2022/04/26 06:09:19;;;;;;;12.80;4.38;;;9.40;99.90;;;;;;5076727;28;20047;-79
2022/04/26 06:11:45;;;;;;;15.52;4.95;;;9.50;99.90;;;;;;5093560;28;20083;-79
2022/04/26 06:14:11;;;;;;;11.23;4.70;;;9.70;99.90;;;;;;5090055;28;20113;-79
2022/04/26 06:16:37;;;;;;;8.63;4.38;;;10.00;99.90;;;;;;5076701;28;20055;-79
2022/04/26 06:19:03;;;;;;;8.07;3.95;;;10.60;99.90;;;;;;5092895;28;20085;-81
2022/04/26 06:21:28;;;;;;;10.95;4.57;;;11.30;99.90;;;;;;5076882;28;20066;-82
2022/04/26 06:23:54;;;;;;;9.02;4.43;;;11.90;99.90;;;;;;5076275;28;20379;-82
2022/04/26 06:26:20;;;;;;;10.98;4.63;;;12.30;99.90;;;;;;5076513;28;20044;-82
2022/04/26 06:28:45;;;;;;;9.88;4.00;;;12.70;99.90;;;;;;5093584;28;20040;-82
2022/04/26 06:31:11;;;;;;;9.23;4.03;;;13.20;99.90;;;;;;5076455;28;20394;-82
2022/04/26 06:33:37;;;;;;;10.00;4.40;;;;;;;;;;5075649;28;20124;-81
2022/04/26 06:36:04;;;;;;;16.35;4.00;;;13.50;99.90;;;;;;5092373;28;20079;-79
2022/04/26 06:38:29;;;;;;;9.20;4.15;;;13.50;99.90;;;;;;5093082;28;20101;-79
2022/04/26 06:40:55;;;;;;;11.93;4.20;;;13.10;99.90;;;;;;5092381;28;20040;-79
2022/04/26 06:43:21;;;;;;;11.63;4.72;;;12.70;99.90;;;;;;5093020;28;20089;-79
2022/04/26 06:45:47;;;;;;;9.98;4.25;;;12.30;99.90;;;;;;5076238;28;20050;-79
2022/04/26 06:48:15;;;;;;;7.97;4.30;;;11.90;99.90;;;;;;5083225;28;20039;-79
2022/04/26 06:50:41;;;;;;;9.18;4.07;;;11.60;99.90;;;;;;5097070;28;20098;-79
2022/04/26 06:53:07;;;;;;;11.55;4.15;;;13.00;99.90;;;;;;5092836;28;20044;-81
2022/04/26 06:55:33;;;;;;;8.98;3.97;;;11.20;99.90;;;;;;5085671;28;20429;-81
2022/04/26 06:57:59;;;;;;;12.48;4.03;;;11.20;99.90;;;;;;5090376;28;20035;-81
2022/04/26 07:00:25;;;;;;;8.35;3.50;;;13.90;99.90;;;;;;5092157;28;20486;-81
2022/04/26 07:02:50;;;;;;;9.05;3.85;;;13.50;99.90;;;;;;5070880;28;20044;-81
2022/04/26 07:05:16;;;;;;;7.63;3.13;;;14.00;99.90;;;;;;5067552;28;20040;-81
2022/04/26 07:07:43;;;;;;;7.53;3.05;;;14.10;99.90;;;;;;5081146;28;20036;-81
2022/04/26 07:10:10;;;;;;;8.27;3.25;;;13.60;99.90;;;;;;5082112;28;20047;-81
2022/04/26 07:12:36;;;;;;;7.60;3.60;;;13.00;99.90;;;;;;5063381;28;20044;-81
2022/04/26 07:15:03;;;;;;;8.10;3.10;;;12.80;99.90;;;;;;5079357;28;20043;-81
2022/04/26 07:17:29;;;;;;;6.95;3.10;;;13.10;99.90;;;;;;5080000;28;20036;-81
2022/04/26 07:19:58;;;;;;;7.32;3.17;;;14.50;99.90;;;;;;5086488;28;20501;-81
2022/04/26 07:22:24;;;;;;;11.20;3.33;;;15.30;99.90;;;;;;5065143;28;20040;-81
2022/04/26 07:24:50;;;;;;;7.53;3.10;;;16.30;98.80;;;;;;5079278;28;20051;-81
2022/04/26 07:27:18;;;;;;;8.70;3.65;;;17.10;96.80;;;;;;5079471;28;20044;-81
2022/04/26 07:29:52;;;;;;;10.05;3.30;;;17.20;99.20;;;;;;5081294;28;20040;-82
2022/04/26 07:32:18;;;;;;;7.68;2.90;;;17.60;97.00;;;;;;5076214;28;20090;-81
2022/04/26 07:34:45;;;;;;;8.98;3.20;;;17.40;95.80;;;;;;5086439;28;20048;-81
2022/04/26 07:37:11;;;;;;;8.50;2.72;;;17.20;95.60;;;;;;5081032;28;20126;-81
2022/04/26 07:39:37;;;;;;;10.75;3.65;;;17.30;93.70;;;;;;5079368;28;20040;-80
2022/04/26 07:42:04;;;;;;;6.00;2.63;;;17.20;95.10;;;;;;5081026;28;20075;-78
2022/04/26 07:44:31;;;;;;;8.38;2.90;;;17.70;95.30;;;;;;5063156;28;20646;-78
2022/04/26 07:46:57;;;;;;;8.20;3.10;;;18.50;93.40;;;;;;5079211;28;20115;-78
2022/04/26 07:49:24;;;;;;;5.75;2.75;;;19.30;88.90;;;;;;5065257;28;20036;-78
2022/04/26 07:51:56;;;;;;;6.88;2.55;;;19.50;90.00;;;;;;5081786;28;20040;-78
2022/04/26 07:54:23;;;;;;;6.82;3.05;;;19.50;86.20;;;;;;5071178;28;20058;-78
2022/04/26 07:56:49;;;;;;;6.93;2.90;;;19.30;83.70;;;;;;5077470;28;20040;-78
2022/04/26 07:59:18;;;;;;;7.10;2.83;;;19.50;86.70;;;;;;5065079;28;20463;-80
2022/04/26 08:01:43;;;;;;;6.90;2.65;;;20.90;81.70;;;;;;5063219;28;20044;-80
2022/04/26 08:04:09;;;;;;;7.43;2.72;;;21.40;76.80;;;;;;5061210;28;20036;-80
2022/04/26 08:06:35;;;;;;;6.75;2.70;;;21.60;75.70;;;;;;5078841;28;20089;-80
2022/04/26 08:09:01;;;;;;;8.43;3.10;;;21.70;76.50;;;;;;5071749;28;20039;-80
2022/04/26 08:11:28;;;;;;;5.43;2.90;;;21.80;73.30;;;;;;5079342;28;20048;-80
2022/04/26 08:13:54;;;;;;;9.05;3.03;;;22.10;76.10;;;;;;5063484;28;20626;-80
2022/04/26 08:16:20;;;;;;;6.90;2.75;;;23.30;70.30;;;;;;5078726;28;20044;-78
2022/04/26 08:18:46;;;;;;;7.93;2.83;;;23.50;69.70;;;;;;5059717;28;20090;-78
2022/04/26 08:21:14;;;;;;;7.15;2.70;;;23.80;68.70;;;;;;5090841;28;20453;-78
2022/04/26 08:29:14;;;;;;;7.18;3.03;;;24.80;63.20;;;;;;5059243;28;20533;-79
2022/04/26 08:31:40;;;;;;;5.93;2.15;;;24.70;64.80;;;;;;5085973;28;20044;-81
2022/04/26 08:34:06;;;;;;;6.18;2.60;;;24.40;64.20;;;;;;5072878;28;20060;-81
2022/04/26 08:36:32;;;;;;;5.82;2.67;;;23.50;61.40;;;;;;5083294;28;20054;-81
2022/04/26 08:38:58;;;;;;;8.13;2.92;;;22.40;63.20;;;;;;5086678;28;20072;-81
2022/04/26 08:41:24;;;;;;;6.95;2.90;;;21.40;62.80;;;;;;5084055;28;20438;-81
2022/04/26 08:43:50;;;;;;;7.07;2.65;;;20.50;63.70;;;;;;5079236;28;20067;-81
2022/04/26 08:46:16;;;;;;;7.07;2.70;;;20.30;63.80;;;;;;5086086;28;20063;-81
2022/04/26 08:51:28;;;;;;;5.63;2.90;;;17.80;67.90;;;;;;5079627;28;20078;-80
2022/04/26 08:53:54;;;;;;;8.10;2.72;;;17.70;69.30;;;;;;5078711;28;20055;-80
2022/04/26 08:56:20;;;;;;;6.95;2.80;;;17.20;70.50;;;;;;5080629;28;20071;-80
2022/04/26 08:58:47;;;;;;;7.75;2.70;;;17.40;71.20;;;;;;5065789;28;20782;-80
2022/04/26 09:01:24;;;;;;;6.53;2.65;;;18.10;71.10;;;;;;5081540;28;21041;-80
2022/04/26 09:03:56;;;;;;;9.43;2.75;;;18.40;68.00;;;;;;5079067;28;20501;-80
2022/04/26 09:06:43;;;;;;;7.35;2.83;;;18.30;70.10;;;;;;5083122;28;20043;-81
2022/04/26 09:09:18;;;;;;;6.53;2.70;;;19.60;68.80;;;;;;5063684;28;20473;-81
2022/04/26 09:11:45;;;;;;;5.82;2.58;;;19.90;68.30;;;;;;5062239;28;20085;-81
2022/04/26 09:14:30;;;;;;;8.27;3.22;;;20.50;65.70;;;;;;5078130;28;20048;-81
2022/04/26 09:17:12;;;;;;;5.50;2.47;;;20.70;64.60;;;;;;5072872;28;20029;-81
2022/04/26 09:19:48;;;;;;;4.70;2.40;;;20.70;64.10;;;;;;5052000;28;20126;-80
2022/04/26 09:22:18;;;;;;;5.40;2.60;;;21.20;63.20;;;;;;5066410;28;20036;-81
2022/04/26 09:25:05;;;;;;;6.70;3.13;;;23.00;60.80;;;;;;5067602;28;20444;-81
2022/04/26 09:27:34;;;;;;;7.85;2.75;;;;;;;;;;5079377;28;20044;-81
2022/04/26 09:30:06;;;;;;;7.50;3.00;;;;;;;;;;5081935;28;20067;-81
2022/04/26 09:32:49;;;;;;;4.13;2.30;;;25.10;57.60;;;;;;5080624;28;20043;-82
2022/04/26 09:35:23;;;;;;;4.93;2.60;;;25.60;56.50;;;;;;5099213;28;20052;-81
2022/04/26 09:37:50;;;;;;;7.45;2.60;;;25.40;53.80;;;;;;5081066;28;20048;-82
2022/04/26 09:40:20;;;;;;;5.30;2.30;;;24.20;54.20;;;;;;5088329;28;20036;-81
2022/04/26 09:42:48;;;;;;;4.93;2.47;;;23.10;54.10;;;;;;5090596;28;20040;-80
2022/04/26 09:45:15;;;;;;;7.95;2.45;;;21.90;56.70;;;;;;5091813;28;20032;-80
2022/04/26 09:47:42;;;;;;;5.90;2.60;;;20.80;59.80;;;;;;5100092;22;20457;-77
2022/04/26 09:50:13;;;;;;;5.10;2.35;;;21.20;60.00;;;;;;5071923;28;20052;-78
2022/04/26 09:52:41;;;;;;;4.78;2.42;;;23.20;57.50;;;;;;5056682;28;20383;-78
2022/04/26 09:55:09;;;;;;;6.50;2.58;;;24.10;56.50;;;;;;5072924;28;20036;-78
2022/04/26 09:57:38;;;;;;;5.82;2.60;;;24.40;57.30;;;;;;5063353;28;20414;-77
2022/04/26 10:00:09;;;;;;;9.07;2.90;;;24.20;54.50;;;;;;5041815;28;20056;-77
2022/04/26 10:02:37;;;;;;;6.82;2.60;;;24.10;55.80;;;;;;5031486;28;20112;-77
2022/04/26 10:05:07;;;;;;;7.22;2.80;;;22.70;56.20;;;;;;5066591;28;20033;-77
2022/04/26 10:07:41;;;;;;;5.32;2.85;;;20.30;57.50;;;;;;5034447;28;20037;-77
2022/04/26 10:10:09;;;;;;;5.80;2.70;;;19.80;60.90;;;;;;5059818;28;20090;-77
2022/04/26 10:12:35;;;;;;;8.55;2.60;;;20.10;60.20;;;;;;5064160;28;20044;-81
2022/04/26 10:15:02;;;;;;;6.72;2.60;;;19.70;59.80;;;;;;5063367;28;20498;-82
2022/04/26 10:17:32;;;;;;;8.05;2.80;;;20.10;60.20;;;;;;5045419;28;20033;-81
2022/04/26 10:20:00;;;;;;;5.25;2.60;;;21.10;59.50;;;;;;5060262;28;20036;-81
2022/04/26 10:22:52;;;;;;;7.15;2.85;;;21.60;57.30;;;;;;5062270;28;20040;-81
2022/04/26 10:25:21;;;;;;;7.05;2.97;;;21.00;58.10;;;;;;5052376;28;20052;-81
2022/04/26 10:28:26;;;;;;;5.93;2.42;;;21.50;59.00;;;;;;5045451;28;20064;-81
2022/04/26 10:30:54;;;;;;;5.30;2.30;;;23.60;55.00;;;;;;5060696;28;20052;-81
2022/04/26 10:33:38;;;;;;;6.50;2.40;;;23.70;56.80;;;;;;5060092;28;20046;-81
2022/04/26 10:36:29;;;;;;;8.23;3.13;;;24.80;55.80;;;;;;5061629;28;20050;-81
2022/04/26 10:39:22;;;;;;;6.88;2.58;;;24.60;53.00;;;;;;5045459;28;20493;-81
2022/04/26 10:41:48;;;;;;;6.35;2.55;;;23.00;54.60;;;;;;5057909;28;20127;-82
2022/04/26 10:44:13;;;;;;;4.57;2.50;;;22.00;56.90;;;;;;5060926;28;20111;-81
2022/04/26 10:46:55;;;;;;;5.30;2.60;;;21.60;57.70;;;;;;5061372;28;21393;-77
2022/04/26 10:49:23;;;;;;;6.15;2.65;;;20.70;57.90;;;;;;5068602;28;21457;-77
2022/04/26 10:51:51;;;;;;;6.10;2.95;;;20.70;59.40;;;;;;5072258;28;20056;-77
2022/04/26 10:54:46;;;;;;;4.68;2.40;;;21.80;58.00;;;;;;5055974;28;20045;-77
2022/04/26 10:57:13;;;;;;;7.95;2.80;;;22.00;56.00;;;;;;5043281;28;20040;-77
2022/04/26 10:59:42;;;;;;;5.05;2.20;;;21.10;56.70;;;;;;5051342;28;20043;-77
2022/04/26 11:02:16;;;;;;;5.82;2.47;;;21.30;58.00;;;;;;5056189;28;20037;-80
2022/04/26 11:04:42;;;;;;;4.57;2.40;;;22.70;57.70;;;;;;5044267;28;20040;-80
2022/04/26 11:07:16;;;;;;;4.72;2.53;;;23.80;56.20;;;;;;5053969;28;20397;-81
2022/04/26 11:09:49;;;;;;;5.78;2.67;;;24.20;53.60;;;;;;5071634;28;20052;-80
2022/04/26 11:12:19;;;;;;;6.40;2.60;;;22.90;54.70;;;;;;5045039;28;20145;-80
2022/04/26 11:14:46;;;;;;;5.43;2.50;;;22.40;56.70;;;;;;5062643;28;20099;-81
2022/04/26 11:17:18;;;;;;;6.88;2.65;;;23.30;57.20;;;;;;5064993;28;20382;-80
2022/04/26 11:20:03;;;;;;;4.82;2.40;;;24.10;55.10;;;;;;5064158;28;20059;-77
2022/04/26 11:22:29;;;;;;;5.07;2.53;;;23.10;53.70;;;;;;5046579;28;20033;-77
2022/04/26 11:28:09;;;;;;;8.18;2.75;;;22.10;55.00;;;;;;5058830;28;20059;-77
2022/04/26 11:30:41;;;;;;;4.60;2.30;;;21.70;55.30;;;;;;5048181;28;20436;-77
2022/04/26 11:33:11;;;;;;;5.07;2.58;;;20.80;56.90;;;;;;5045913;28;20102;-77
2022/04/26 11:35:39;;;;;;;7.50;2.63;;;20.40;58.60;;;;;;5063093;28;20048;-81
2022/04/26 11:38:13;;;;;;;6.88;2.58;;;21.00;58.00;;;;;;5047427;28;20036;-82
2022/04/26 11:40:41;;;;;;;6.10;2.60;;;21.10;56.10;;;;;;5048068;28;20059;-82
2022/04/26 11:43:14;;;;;;;7.70;2.95;;;20.80;57.10;;;;;;5061318;28;20033;-82
2022/04/26 11:45:48;;;;;;;6.20;2.60;;;21.40;57.70;;;;;;5060257;28;20048;-81
2022/04/26 11:48:16;;;;;;;4.43;2.50;;;22.90;55.80;;;;;;5060774;28;20457;-81
2022/04/26 11:50:43;;;;;;;6.18;2.45;;;24.40;53.50;;;;;;5026042;28;20465;-82
2022/04/26 11:53:15;;;;;;;4.50;2.33;;;24.80;50.70;;;;;;5027564;28;20040;-82
2022/04/26 11:55:43;;;;;;;5.47;2.53;;;24.70;50.60;;;;;;5046138;28;20037;-82
2022/04/26 11:58:13;;;;;;;3.92;2.30;;;23.40;52.40;;;;;;5062501;28;20102;-82
2022/04/26 12:01:05;;;;;;;6.18;2.80;;;22.60;54.80;;;;;;5063989;28;20040;-81
2022/04/26 12:03:48;;;;;;;6.20;2.58;;;23.10;54.70;;;;;;5062777;28;20044;-81
2022/04/26 12:06:28;;;;;;;8.07;3.10;;;24.00;52.90;;;;;;5062734;28;20178;-82
2022/04/26 12:09:02;;;;;;;6.53;3.20;;;24.40;52.40;;;;;;5064391;28;20044;-77
2022/04/26 12:11:30;;;;;;;8.52;2.50;;;24.90;52.10;;;;;;5060252;28;20190;-77
2022/04/26 12:14:08;;;;;;;6.15;2.78;;;25.70;51.10;;;;;;5042632;28;20044;-78
2022/04/26 12:16:45;;;;;;;5.88;2.70;;;25.80;50.90;;;;;;5059623;28;20045;-78
2022/04/26 12:19:11;;;;;;;7.75;2.70;;;25.70;49.40;;;;;;5058567;28;20040;-78
2022/04/26 12:21:52;;;;;;;4.07;2.33;;;25.00;51.30;;;;;;5039554;28;20429;-78
2022/04/26 12:24:18;;;;;;;3.45;2.30;;;24.00;52.20;;;;;;5040163;28;20056;-78
2022/04/26 12:27:03;;;;;;;6.75;2.50;;;23.70;51.70;;;;;;5059090;28;20122;-79
2022/04/26 12:29:41;;;;;;;4.82;2.38;;;23.80;53.10;;;;;;5058436;28;20435;-77
2022/04/26 12:32:21;;;;;;;5.20;2.72;;;24.10;51.90;;;;;;5075771;28;20055;-77
2022/04/26 12:34:49;;;;;;;5.15;2.33;;;24.10;53.40;;;;;;5060743;28;20041;-77
2022/04/26 12:37:26;;;;;;;5.32;2.80;;;23.80;52.30;;;;;;5043078;28;22025;-78
2022/04/26 12:40:07;;;;;;;6.75;2.88;;;22.20;53.00;;;;;;5059628;28;20569;-77
2022/04/26 12:42:34;;;;;;;5.75;3.47;;;21.60;55.70;;;;;;5060639;28;20044;-84
2022/04/26 12:45:21;;;;;;;6.22;2.88;;;21.40;57.10;;;;;;5059250;28;20124;-80
2022/04/26 12:51:11;;;;;;;3.97;2.70;;;21.00;56.40;;;;;;5060955;28;20143;-80
2022/04/26 12:53:38;;;;;;;6.80;2.80;;;20.60;56.60;;;;;;5064736;28;20098;-80
2022/04/26 12:56:11;;;;;;;8.32;3.05;;;20.60;57.10;;;;;;5062311;28;20048;-81
2022/04/26 12:58:55;;;;;;;4.93;2.47;;;20.70;57.00;;;;;;5062053;28;20040;-78
2022/04/26 13:01:21;;;;;;;5.35;2.67;;;20.50;56.40;;;;;;5062660;28;20037;-77
2022/04/26 13:03:47;;;;;;;5.55;2.40;;;20.50;57.10;;;;;;5063054;28;20067;-77
2022/04/26 13:06:17;;;;;;;5.80;2.72;;;20.30;58.80;;;;;;5046128;28;20048;-77
2022/04/26 13:08:46;;;;;;;6.65;2.97;;;19.20;58.80;;;;;;5063307;28;20045;-77
2022/04/26 13:11:14;;;;;;;7.65;3.03;;;18.70;59.50;;;;;;5060250;28;20044;-77
2022/04/26 13:13:40;;;;;;;5.63;3.05;;;18.60;60.00;;;;;;5063089;28;20048;-77
2022/04/26 13:16:07;;;;;;;6.03;2.80;;;18.20;61.10;;;;;;5043438;28;20086;-77
2022/04/26 13:18:33;;;;;;;6.95;2.97;;;17.90;61.70;;;;;;5061863;28;20033;-77
2022/04/26 13:21:00;;;;;;;6.50;2.97;;;17.30;60.60;;;;;;5063478;28;20044;-77
2022/04/26 13:23:27;;;;;;;5.65;2.90;;;16.90;63.40;;;;;;5028885;28;20063;-77
2022/04/26 13:25:53;;;;;;;7.45;2.63;;;16.80;63.80;;;;;;5062759;28;20569;-77
2022/04/26 13:28:19;;;;;;;6.30;2.72;;;16.80;65.00;;;;;;5060950;28;20122;-77
2022/04/26 13:30:46;;;;;;;7.05;2.88;;;16.80;64.80;;;;;;5065839;28;20068;-77
2022/04/26 13:33:11;;;;;;;7.82;3.08;;;17.00;65.10;;;;;;5063167;28;20040;-77
2022/04/26 13:35:38;;;;;;;5.68;2.60;;;17.20;65.10;;;;;;5061238;28;20039;-77
2022/04/26 13:38:11;;;;;;;10.65;3.08;;;17.40;63.90;;;;;;5062048;28;20253;-77
2022/04/26 13:40:39;;;;;;;4.97;2.97;;;17.10;63.40;;;;;;5047659;28;20047;-77
2022/04/26 13:43:06;;;;;;;7.47;3.00;;;17.00;64.60;;;;;;5062857;28;20108;-77
2022/04/26 13:45:32;;;;;;;5.65;2.80;;;17.10;64.70;;;;;;5062321;28;20040;-77
2022/04/26 13:48:01;;;;;;;7.95;2.78;;;17.00;64.70;;;;;;5063331;28;20479;-77
2022/04/26 13:50:27;;;;;;;4.93;2.70;;;16.90;65.10;;;;;;5063335;28;20119;-81
2022/04/26 13:52:53;;;;;;;6.97;3.08;;;16.70;65.70;;;;;;5045437;28;20253;-81
2022/04/26 13:55:19;;;;;;;8.45;2.72;;;16.70;65.20;;;;;;5047143;28;20117;-81
2022/04/26 13:57:46;;;;;;;6.60;3.00;;;16.70;65.20;;;;;;5062348;28;20044;-81
2022/04/26 14:00:13;;;;;;;5.80;2.97;;;16.60;66.20;;;;;;5046449;28;20036;-82
2022/04/26 14:02:41;;;;;;;7.10;3.38;;;16.70;66.10;;;;;;5061506;28;20047;-82
2022/04/26 14:05:08;;;;;;;6.85;3.10;;;16.90;65.70;;;;;;5063588;28;20391;-78
2022/04/26 14:07:33;;;;;;;6.35;3.25;;;17.10;66.00;;;;;;5046419;28;20110;-78
2022/04/26 14:09:59;;;;;;;7.15;3.03;;;17.10;66.20;;;;;;5061901;28;20097;-78
2022/04/26 14:12:25;;;;;;;6.82;2.63;;;17.30;65.80;;;;;;5061935;28;20592;-78
2022/04/26 14:23:03;;;;;;;5.97;2.70;;;17.40;64.70;;;;;;5046560;28;20040;-77
2022/04/26 14:25:29;;;;;;;6.40;2.50;;;17.40;65.20;;;;;;5045909;28;20191;-77
2022/04/26 14:27:54;;;;;;;5.30;2.80;;;17.20;66.00;;;;;;5047991;28;20408;-77
2022/04/26 14:30:20;;;;;;;5.93;2.83;;;16.90;65.60;;;;;;5065111;28;20097;-77
2022/04/26 14:32:46;;;;;;;5.22;2.78;;;16.70;66.30;;;;;;5047219;28;20470;-77
2022/04/26 14:35:12;;;;;;;9.48;3.58;;;16.70;67.70;;;;;;5068674;28;20039;-77
2022/04/26 14:37:38;;;;;;;7.80;2.72;;;16.90;67.80;;;;;;5087611;28;20045;-77
2022/04/26 14:40:05;;;;;;;5.85;2.53;;;17.10;67.80;;;;;;5050472;28;20111;-77
2022/04/26 14:42:31;;;;;;;6.63;2.83;;;17.10;67.10;;;;;;5068514;28;20041;-77
2022/04/26 14:44:57;;;;;;;7.28;2.65;;;17.10;67.00;;;;;;5046507;28;20035;-77
2022/04/26 14:47:29;;;;;;;7.05;2.97;;;17.10;66.60;;;;;;5055000;28;20033;-77
2022/04/26 14:49:57;;;;;;;5.90;2.53;;;17.20;65.90;;;;;;5065137;28;20092;-77
2022/04/26 14:52:24;;;;;;;8.48;2.80;;;16.90;65.30;;;;;;5072394;28;20040;-77
2022/04/26 14:54:50;;;;;;;7.68;2.90;;;;;;;;;;5069709;28;20044;-77
2022/04/26 14:57:19;;;;;;;6.43;3.05;;;16.10;66.70;;;;;;5070970;28;20047;-80
2022/04/26 14:59:48;;;;;;;7.05;2.90;;;15.90;67.70;;;;;;5071114;28;20037;-81
2022/04/26 15:02:17;;;;;;;5.45;2.75;;;15.60;68.60;;;;;;5050328;28;20398;-80
2022/04/26 15:04:47;;;;;;;6.03;2.85;;;15.40;68.40;;;;;;5057191;28;20060;-80
2022/04/26 15:07:13;;;;;;;6.15;2.70;;;15.20;69.00;;;;;;5060000;28;20083;-80
2022/04/26 15:09:42;;;;;;;6.43;2.92;;;15.00;69.40;;;;;;5070770;28;20046;-80
2022/04/26 15:17:37;;;;;;;5.60;2.75;;;15.00;71.70;;;;;;5061510;28;21035;-80
2022/04/26 15:20:03;;;;;;;4.90;2.75;;;15.00;70.20;;;;;;5030200;28;20090;-80
2022/04/26 15:22:29;;;;;;;6.90;2.90;;;15.00;69.90;;;;;;5061288;28;20041;-80
2022/04/26 15:24:55;;;;;;;6.55;3.17;;;14.80;69.60;;;;;;5060921;28;20039;-80
2022/04/26 15:27:21;;;;;;;7.78;3.08;;;14.70;69.50;;;;;;5044150;28;20040;-80
2022/04/26 15:29:47;;;;;;;7.40;2.90;;;14.60;70.20;;;;;;5058998;28;20040;-81
2022/04/26 15:32:13;;;;;;;9.48;3.00;;;14.60;71.10;;;;;;5061859;28;20108;-81
2022/04/26 15:34:40;;;;;;;6.53;2.90;;;14.60;72.10;;;;;;5063148;28;20040;-81
2022/04/26 15:37:06;;;;;;;8.32;3.25;;;14.70;71.90;;;;;;5044222;28;20474;-81
2022/04/26 15:39:32;;;;;;;8.43;3.53;;;14.80;71.80;;;;;;5059113;28;20367;-81
2022/04/26 15:41:59;;;;;;;6.03;3.00;;;14.70;70.90;;;;;;5043324;28;20068;-81
2022/04/26 15:44:25;;;;;;;5.45;2.88;;;14.60;70.90;;;;;;5059163;28;20036;-81
2022/04/26 15:46:56;;;;;;;7.78;3.15;;;14.30;70.80;;;;;;5055161;28;20063;-81
2022/04/26 15:49:24;;;;;;;8.38;3.10;;;14.10;71.60;;;;;;5043403;28;20071;-81
2022/04/26 15:51:51;;;;;;;7.35;3.08;;;14.00;71.90;;;;;;5044003;28;20048;-81
2022/04/26 15:54:17;;;;;;;8.25;2.70;;;13.90;71.90;;;;;;5064341;28;20074;-81
2022/04/26 15:56:44;;;;;;;5.60;2.83;;;13.80;72.10;;;;;;5068921;28;20052;-81
2022/04/26 15:59:10;;;;;;;4.53;2.90;;;13.70;72.00;;;;;;5071869;28;20047;-80
2022/04/26 16:01:37;;;;;;;5.57;2.97;;;13.80;72.70;;;;;;5054977;28;20040;-78
2022/04/26 16:04:04;;;;;;;9.48;3.10;;;13.90;73.00;;;;;;5071576;28;20478;-77
2022/04/26 16:06:30;;;;;;;5.97;3.10;;;14.10;72.80;;;;;;5063864;28;20060;-77
2022/04/26 16:20:28;;;;;;;7.35;2.67;;;14.30;72.40;;;;;;5051890;28;20040;-77
2022/04/26 16:22:38;;;;;;;4.47;2.50;;;14.20;70.60;;;;;;5064102;28;20037;-80
2022/04/26 16:25:06;;;;;;;5.95;3.10;;;13.90;71.10;;;;;;5070303;28;20037;-80
2022/04/26 16:27:32;;;;;;;7.10;3.13;;;13.70;72.00;;;;;;5055592;28;20098;-80
2022/04/26 16:30:00;;;;;;;5.05;2.53;;;13.40;72.20;;;;;;5075295;28;20109;-80
2022/04/26 16:32:27;;;;;;;6.00;2.45;;;13.00;73.00;;;;;;5074348;28;20098;-80
2022/04/26 16:34:53;;;;;;;7.28;2.33;;;12.90;73.30;;;;;;5058666;28;20040;-80
2022/04/26 16:37:19;;;;;;;4.43;2.42;;;12.70;73.90;;;;;;5058708;28;20051;-80
2022/04/26 16:39:45;;;;;;;5.22;2.45;;;12.50;74.90;;;;;;5075102;28;20125;-80
2022/04/26 16:42:10;;;;;;;8.68;2.60;;;12.40;75.40;;;;;;5067073;28;20075;-80
2022/04/26 16:44:36;;;;;;;6.68;2.65;;;12.20;75.90;;;;;;5053386;28;20067;-80
2022/04/26 16:47:02;;;;;;;4.63;2.40;;;12.10;76.30;;;;;;5046648;28;20482;-80
2022/04/26 16:49:30;;;;;;;5.45;2.25;;;12.10;76.20;;;;;;5065139;28;20126;-80
2022/04/26 16:51:56;;;;;;;5.38;2.45;;;12.00;76.60;;;;;;5048063;28;20047;-81
2022/04/26 16:54:21;;;;;;;5.80;2.60;;;11.70;77.50;;;;;;5037731;28;20040;-77
2022/04/26 16:56:47;;;;;;;5.03;2.47;;;11.70;77.80;;;;;;5034261;28;20046;-79
2022/04/26 16:59:16;;;;;;;9.65;2.83;;;11.40;79.60;;;;;;5065113;28;20375;-79
2022/04/26 17:01:41;;;;;;;6.53;2.75;;;11.40;80.00;;;;;;5065211;28;20116;-79
2022/04/26 17:04:12;;;;;;;5.75;2.80;;;11.30;81.40;;;;;;5047150;28;20127;-79
2022/04/26 17:06:38;;;;;;;7.88;2.80;;;11.40;81.70;;;;;;5064152;28;20402;-79
2022/04/26 17:09:04;;;;;;;8.02;2.75;;;11.50;82.30;;;;;;5050377;28;20043;-79
2022/04/26 17:11:42;;;;;;;5.93;2.53;;;11.50;82.70;;;;;;5050129;28;20516;-79
2022/04/26 17:14:19;;;;;;;5.70;2.95;;;11.60;82.90;;;;;;5063563;28;20053;-78